Time;durP1;ratioP1;P1;durP2;ratioP2;P2;SDS_P1;SDS_P2;PMS_P1;PMS_P2;Temp;Humidity;BMP_temperature;BMP_pressure;BME280_temperature;BME280_humidity;BME280_pressure;Samples;Min_cycle;Max_cycle;Signal;HPM_P1;HPM_P2
2022/02/04 00:02:02;;;;;;;6.80;4.12;;;;;;;-3.86;58.99;99360.53;1785599;80;20993;-39
2022/02/04 00:08:23;;;;;;;10.60;6.50;;;;;;;-3.73;58.54;99356.58;1782221;80;21013;-39
2022/02/04 00:21:50;;;;;;;7.67;5.30;;;;;;;-3.71;57.62;99372.98;1751200;82;21780;-39
2022/02/04 00:24:00;;;;;;;8.23;5.42;;;;;;;-3.78;57.87;99376.44;1774650;80;21025;-39
2022/02/04 00:26:32;;;;;;;8.23;5.35;;;;;;;-3.83;57.52;99375.91;1782492;80;21907;-39
2022/02/04 00:29:12;;;;;;;7.45;4.87;;;;;;;-3.86;57.23;99375.09;1781497;80;20930;-39
2022/02/04 00:31:35;;;;;;;8.23;5.33;;;;;;;-3.89;57.09;99367.69;1780623;80;21555;-39
2022/02/04 00:34:04;;;;;;;8.63;5.15;;;;;;;-3.92;57.09;99369.53;1763718;80;21080;-39
2022/02/04 00:36:36;;;;;;;7.83;4.97;;;;;;;-3.93;56.99;99374.58;1750673;82;21044;-39
2022/02/04 00:38:57;;;;;;;7.12;4.60;;;;;;;-3.93;57.19;99372.45;1749836;82;21887;-39
2022/02/04 00:41:27;;;;;;;7.22;4.45;;;;;;;-3.94;56.83;99374.31;1751432;82;21083;-39
2022/02/04 00:43:54;;;;;;;7.42;4.62;;;;;;;-3.97;56.52;99372.97;1751034;82;20929;-39
2022/02/04 00:49:11;;;;;;;6.10;3.77;;;;;;;-4.05;56.29;99370.05;1763404;80;22096;-39
2022/02/04 00:54:25;;;;;;;6.80;4.30;;;;;;;-4.11;56.45;99359.98;1782551;80;21622;-39
2022/02/04 01:13:37;;;;;;;8.25;4.92;;;;;;;-4.57;55.85;99374.19;1786703;79;21004;-38
2022/02/04 01:26:58;;;;;;;9.28;5.37;;;;;;;-4.89;56.44;99371.70;1782363;80;21386;-39
2022/02/04 01:29:29;;;;;;;10.80;6.20;;;;;;;-4.96;56.27;99365.32;1782405;80;21033;-39
2022/02/04 01:31:53;;;;;;;10.40;6.10;;;;;;;-5.00;56.47;99362.13;1781752;80;21152;-39
2022/02/04 01:34:20;;;;;;;8.68;5.75;;;;;;;-5.02;56.84;99359.73;1782445;80;21527;-39
2022/02/04 01:36:46;;;;;;;9.78;5.60;;;;;;;-5.03;56.83;99368.71;1782452;80;21605;-39
2022/02/04 01:39:13;;;;;;;10.98;6.30;;;;;;;-5.03;56.30;99357.34;1782478;80;21477;-39
2022/02/04 01:41:39;;;;;;;7.62;4.85;;;;;;;-5.06;56.40;99357.34;1782476;80;21499;-39
2022/02/04 01:44:24;;;;;;;9.10;5.85;;;;;;;-5.10;56.73;99360.23;1782265;80;21127;-39
2022/02/04 01:46:51;;;;;;;10.08;6.33;;;;;;;-5.11;56.36;99364.45;1781905;80;21500;-38
2022/02/04 01:49:18;;;;;;;10.03;6.10;;;;;;;-5.16;56.01;99369.70;1782368;80;20957;-38
2022/02/04 01:51:45;;;;;;;10.72;5.85;;;;;;;-5.19;56.03;99376.31;1782344;80;20949;-39
2022/02/04 01:54:13;;;;;;;9.38;5.65;;;;;;;-5.20;56.02;99378.68;1782505;80;21511;-39
2022/02/04 01:56:40;;;;;;;9.83;6.05;;;;;;;-5.22;56.03;99374.69;1782299;80;21123;-39
2022/02/04 01:59:07;;;;;;;10.82;5.83;;;;;;;-5.23;55.79;99377.88;1782651;80;21033;-39
2022/02/04 02:01:34;;;;;;;9.85;6.08;;;;;;;-5.24;55.43;99386.05;1785126;80;21007;-39
2022/02/04 02:04:02;;;;;;;14.85;6.37;;;;;;;-5.25;55.42;99381.30;1785002;80;20980;-38
2022/02/04 02:06:46;;;;;;;9.63;6.17;;;;;;;-5.27;55.57;99382.06;1751585;82;21238;-38
2022/02/04 02:09:13;;;;;;;8.03;5.50;;;;;;;-5.30;55.32;99381.27;1771661;80;21182;-39
2022/02/04 02:11:40;;;;;;;7.78;5.28;;;;;;;-5.34;55.33;99387.59;1782363;80;21507;-38
2022/02/04 02:14:11;;;;;;;10.55;6.03;;;;;;;-5.37;55.08;99389.92;1782835;80;21043;-39
2022/02/04 02:46:05;;;;;;;11.28;6.08;;;;;;;-5.93;56.47;99399.31;1785323;80;21008;-39
2022/02/04 02:48:59;;;;;;;7.97;5.37;;;;;;;-5.95;56.89;99402.19;1782876;80;21122;-39
2022/02/04 02:57:12;;;;;;;11.05;6.53;;;;;;;-5.88;59.44;99408.07;1782499;80;21064;-39
2022/02/04 02:59:09;;;;;;;10.85;6.65;;;;;;;-5.81;60.96;99408.61;1778399;80;21021;-38
2022/02/04 03:01:34;;;;;;;13.00;6.35;;;;;;;-5.77;61.75;99413.69;1781944;80;21134;-38
2022/02/04 03:04:06;;;;;;;12.58;6.03;;;;;;;-5.78;62.80;99410.77;1782482;80;20996;-39
2022/02/04 03:06:30;;;;;;;13.72;6.62;;;;;;;-5.78;62.80;99410.77;1781918;80;21033;-39
2022/02/04 03:08:57;;;;;;;13.32;6.72;;;;;;;-5.80;63.13;99410.73;1782318;80;21033;-38
2022/02/04 03:11:24;;;;;;;16.35;6.72;;;;;;;-5.83;63.73;99419.97;1782506;80;21080;-39
2022/02/04 03:13:50;;;;;;;13.53;7.37;;;;;;;-6.24;63.77;99349.41;1782492;80;21137;-38
2022/02/04 03:16:18;;;;;;;14.33;6.78;;;;;;;-5.77;63.98;99424.25;1782460;80;21021;-39
2022/02/04 03:18:49;;;;;;;15.80;8.63;;;;;;;-5.69;63.60;99421.66;1782475;80;20894;-39
2022/02/04 03:21:17;;;;;;;14.95;7.20;;;;;;;-5.61;63.43;99419.06;1782085;80;21551;-38
2022/02/04 03:23:48;;;;;;;12.47;7.17;;;;;;;-5.51;63.17;99419.15;1753347;80;21070;-39
2022/02/04 03:28:56;;;;;;;16.20;8.05;;;;;;;-5.38;62.61;99418.73;1773982;80;21532;-38
2022/02/04 03:31:27;;;;;;;15.68;7.78;;;;;;;-5.35;62.35;99416.38;1774034;80;21025;-39
2022/02/04 03:33:52;;;;;;;13.32;7.47;;;;;;;-5.27;62.05;99418.53;1751525;80;21512;-38
2022/02/04 03:36:19;;;;;;;16.12;6.92;;;;;;;-5.27;62.05;99418.53;1732533;82;21085;-39
2022/02/04 03:38:46;;;;;;;14.23;7.60;;;;;;;-5.24;61.48;99421.20;1732411;82;21096;-38
2022/02/04 03:41:13;;;;;;;15.10;7.10;;;;;;;-5.25;61.58;99427.53;1771180;80;20936;-38
2022/02/04 03:43:40;;;;;;;11.48;6.40;;;;;;;-5.20;61.42;99418.84;1774086;80;21021;-38
2022/02/04 03:46:07;;;;;;;13.15;6.90;;;;;;;-5.16;61.17;99427.33;1773823;80;21001;-38
2022/02/04 03:48:34;;;;;;;14.23;6.67;;;;;;;-5.10;60.95;99426.31;1773988;80;21076;-38
2022/02/04 03:51:01;;;;;;;12.35;6.60;;;;;;;-5.06;60.70;99427.91;1773840;80;21500;-38
2022/02/04 03:53:28;;;;;;;10.00;6.05;;;;;;;-5.02;60.46;99425.82;1773979;80;21492;-38
2022/02/04 03:55:55;;;;;;;9.53;6.55;;;;;;;-5.03;60.14;99424.22;1773960;80;20917;-39
2022/02/04 03:58:22;;;;;;;11.40;6.47;;;;;;;-5.12;60.23;99417.83;1773869;80;21026;-38
2022/02/04 04:00:48;;;;;;;9.30;5.95;;;;;;;-5.16;60.20;99420.72;1773950;80;20937;-39
2022/02/04 04:03:17;;;;;;;9.05;6.45;;;;;;;-5.23;60.12;99422.01;1773717;80;21133;-39
2022/02/04 04:05:48;;;;;;;12.55;6.22;;;;;;;-5.35;60.28;99425.62;1773802;80;21016;-39
2022/02/04 04:08:15;;;;;;;8.73;5.75;;;;;;;-5.37;60.68;99426.91;1773055;80;21052;-39
2022/02/04 04:10:43;;;;;;;10.78;6.70;;;;;;;-5.33;60.67;99428.81;1774060;80;21041;-38
2022/02/04 04:13:11;;;;;;;9.00;5.70;;;;;;;-5.32;60.54;99434.88;1754974;80;21018;-39
2022/02/04 04:15:38;;;;;;;10.45;6.33;;;;;;;-5.32;60.36;99436.19;1743191;82;21822;-38
2022/02/04 04:18:04;;;;;;;10.78;6.42;;;;;;;-5.40;60.31;99439.31;1743144;82;20895;-39
2022/02/04 04:20:32;;;;;;;9.38;6.20;;;;;;;-5.47;60.47;99432.91;1743418;82;21853;-39
2022/02/04 04:22:59;;;;;;;10.35;5.92;;;;;;;-5.52;60.88;99433.42;1742030;80;21179;-39
2022/02/04 04:25:26;;;;;;;9.98;6.28;;;;;;;-5.48;61.00;99427.91;1736464;82;21670;-39
2022/02/04 04:27:53;;;;;;;9.55;6.22;;;;;;;-5.43;60.96;99434.03;1736333;82;21111;-39
2022/02/04 04:30:23;;;;;;;11.88;7.12;;;;;;;-5.40;60.91;99434.83;1736407;81;21087;-39
2022/02/04 04:32:54;;;;;;;11.68;6.40;;;;;;;-5.36;60.85;99434.59;1739868;81;21031;-38
2022/02/04 04:35:24;;;;;;;10.13;6.45;;;;;;;-5.31;60.63;99432.50;1766956;81;21556;-39
2022/02/04 04:37:59;;;;;;;13.78;7.03;;;;;;;-5.39;60.30;99427.70;1767027;81;21097;-38
2022/02/04 05:29:08;;;;;;;13.55;8.43;;;;;;;-5.63;60.02;99453.67;1741484;82;21026;-38
2022/02/04 05:31:35;;;;;;;16.70;7.80;;;;;;;-5.54;59.86;99452.68;1736037;82;20914;-39
2022/02/04 05:34:02;;;;;;;13.60;8.00;;;;;;;-5.48;59.45;99459.08;1760006;81;21152;-39
2022/02/04 05:36:29;;;;;;;13.20;8.23;;;;;;;-5.44;59.28;99446.16;1771904;81;20922;-39
2022/02/04 05:38:56;;;;;;;15.13;8.03;;;;;;;-5.40;59.27;99445.40;1771906;81;21060;-39
2022/02/04 05:41:29;;;;;;;16.07;8.05;;;;;;;-5.37;58.86;99450.16;1772035;81;21033;-39
2022/02/04 05:43:53;;;;;;;12.00;8.03;;;;;;;-5.35;58.85;99455.20;1771261;81;21061;-38
2022/02/04 05:46:25;;;;;;;12.68;8.03;;;;;;;-5.32;58.87;99451.52;1771984;81;21275;-38
2022/02/04 05:48:49;;;;;;;12.53;7.45;;;;;;;-5.63;58.68;99398.21;1770917;81;20961;-39
2022/02/04 05:51:29;;;;;;;15.75;8.28;;;;;;;-5.24;58.49;99454.76;1771916;81;21507;-38
2022/02/04 05:54:02;;;;;;;13.65;8.18;;;;;;;-5.29;58.29;99450.23;1770124;81;20989;-39
2022/02/04 06:02:14;;;;;;;12.13;7.80;;;;;;;-5.39;59.02;99460.20;1814495;79;21526;-38
2022/02/04 06:11:55;;;;;;;15.03;8.55;;;;;;;-5.18;58.76;99474.38;1814565;79;20913;-38
2022/02/04 06:22:20;;;;;;;15.45;9.33;;;;;;;-4.96;58.87;99478.20;1812390;78;20980;-37
2022/02/04 06:24:48;;;;;;;16.45;9.65;;;;;;;-4.93;58.75;99474.52;1796955;79;20968;-37
2022/02/04 06:27:16;;;;;;;15.55;9.30;;;;;;;-4.90;58.67;99477.19;1797541;79;21471;-38
2022/02/04 06:29:43;;;;;;;18.35;10.20;;;;;;;-4.87;58.50;99478.78;1797225;79;21160;-38
2022/02/04 06:32:13;;;;;;;17.95;10.25;;;;;;;-4.99;58.78;99480.84;1796923;79;20918;-38
2022/02/04 06:34:41;;;;;;;16.35;9.58;;;;;;;-5.03;59.40;99485.02;1800745;79;21012;-37
2022/02/04 06:39:22;;;;;;;15.93;9.93;;;;;;;-4.89;59.44;99483.52;1797226;79;22561;-38
2022/02/04 06:41:49;;;;;;;16.60;9.75;;;;;;;-4.93;59.74;99483.77;1757143;80;21512;-38
2022/02/04 06:44:16;;;;;;;17.15;10.32;;;;;;;-4.84;59.79;99484.88;1756873;81;21086;-37
2022/02/04 06:46:42;;;;;;;16.73;10.50;;;;;;;-4.74;59.91;99482.81;1756903;81;21019;-38
2022/02/04 06:49:09;;;;;;;20.05;11.57;;;;;;;-4.63;59.96;99483.15;1756918;81;20968;-38
2022/02/04 06:51:38;;;;;;;22.30;11.83;;;;;;;-4.53;59.96;99489.02;1756904;81;20965;-37
2022/02/04 06:54:04;;;;;;;19.32;11.80;;;;;;;-4.46;59.87;99485.63;1757008;81;21628;-38
2022/02/04 06:56:34;;;;;;;19.50;11.63;;;;;;;-4.40;59.76;99488.53;1757088;81;21930;-38
2022/02/04 06:59:00;;;;;;;22.85;11.68;;;;;;;-4.35;59.65;99483.27;1756867;81;20992;-37
2022/02/04 07:01:29;;;;;;;20.85;11.63;;;;;;;-4.31;59.70;99489.66;1756890;81;20976;-38
2022/02/04 07:03:55;;;;;;;20.62;12.55;;;;;;;-4.24;59.64;99487.55;1756875;81;21511;-37
2022/02/04 07:06:22;;;;;;;20.08;12.30;;;;;;;-4.22;59.43;99489.95;1757211;81;21056;-38
2022/02/04 07:14:21;;;;;;;19.15;11.65;;;;;;;-4.27;59.69;99494.70;1789373;80;21612;-38
2022/02/04 07:22:08;;;;;;;20.20;12.15;;;;;;;-4.52;60.48;99490.61;1788770;80;21083;-38
2022/02/04 07:24:34;;;;;;;22.40;12.40;;;;;;;-4.56;60.78;99490.86;1726628;83;21391;-37
2022/02/04 07:27:01;;;;;;;21.57;12.75;;;;;;;-4.59;61.03;99487.39;1726824;83;21437;-38
2022/02/04 07:29:29;;;;;;;18.73;12.13;;;;;;;-4.62;61.23;99494.53;1726948;82;21508;-38
2022/02/04 07:31:56;;;;;;;18.87;11.57;;;;;;;-4.62;61.47;99491.36;1726873;82;21040;-38
2022/02/04 07:34:39;;;;;;;18.32;10.93;;;;;;;-4.56;61.65;99490.34;1749669;81;21092;-38
2022/02/04 07:42:22;;;;;;;18.40;10.63;;;;;;;-4.55;62.09;99480.55;1757438;81;21048;-38
2022/02/04 07:44:49;;;;;;;22.05;11.20;;;;;;;-4.50;62.11;99476.58;1757123;81;20977;-39
2022/02/04 07:47:16;;;;;;;17.80;10.48;;;;;;;-4.42;62.17;99480.08;1757145;81;21106;-39
2022/02/04 07:49:44;;;;;;;15.40;10.23;;;;;;;-4.33;62.36;99475.87;1757138;80;21013;-39
2022/02/04 07:52:11;;;;;;;18.50;10.08;;;;;;;-4.19;61.97;99470.36;1756706;81;21037;-39
2022/02/04 07:54:38;;;;;;;15.08;9.85;;;;;;;-4.07;61.73;99463.53;1756553;81;21012;-39
2022/02/04 07:57:04;;;;;;;13.28;9.43;;;;;;;-3.98;61.49;99464.08;1756528;81;21028;-39
2022/02/04 07:59:31;;;;;;;12.78;8.15;;;;;;;-3.78;61.47;99467.82;1752004;81;21256;-39
2022/02/04 08:01:58;;;;;;;12.25;7.92;;;;;;;-3.57;61.26;99465.44;1763498;80;21558;-39
2022/02/04 08:04:29;;;;;;;12.80;7.90;;;;;;;-3.30;60.82;99461.22;1788481;80;20994;-39
2022/02/04 08:07:02;;;;;;;12.13;7.83;;;;;;;-3.03;60.10;99459.59;1787852;80;21020;-39
2022/02/04 08:12:09;;;;;;;12.60;7.85;;;;;;;-2.53;58.50;99463.45;1726247;81;21142;-39
2022/02/04 08:14:47;;;;;;;12.85;8.15;;;;;;;-2.25;58.28;99460.67;1688957;84;21024;-39
2022/02/04 08:22:18;;;;;;;10.50;5.95;;;;;;;-1.51;56.07;99459.70;1687350;82;21079;-39
2022/02/04 08:24:49;;;;;;;10.65;6.95;;;;;;;-1.31;55.13;99462.20;1717704;83;21130;-39
2022/02/04 08:32:33;;;;;;;10.88;6.97;;;;;;;-0.98;53.87;99467.23;1720578;83;20988;-39
2022/02/04 08:35:22;;;;;;;10.75;6.65;;;;;;;-0.85;52.98;99459.91;1691070;84;21000;-39
2022/02/04 08:38:14;;;;;;;12.00;7.22;;;;;;;-0.78;53.26;99463.57;1688970;84;21107;-39
2022/02/04 08:54:08;;;;;;;13.03;6.92;;;;;;;-0.54;51.38;99457.72;1674092;85;20127;-39
2022/02/04 08:58:25;;;;;;;11.45;7.08;;;;;;;-0.73;51.36;99455.00;1674143;85;21065;-39
2022/02/04 09:00:54;;;;;;;10.25;7.35;;;;;;;-0.77;51.48;99461.14;1672642;85;21045;-39
2022/02/04 09:03:48;;;;;;;11.85;7.62;;;;;;;-0.80;51.48;99459.85;1672804;85;21160;-39
2022/02/04 09:05:44;;;;;;;11.73;7.15;;;;;;;-0.85;51.56;99461.23;1670184;85;20974;-39
2022/02/04 09:10:42;;;;;;;9.23;6.55;;;;;;;-0.85;51.83;99451.92;1702347;84;20958;-40
2022/02/04 09:18:37;;;;;;;9.45;5.85;;;;;;;-0.69;51.58;99446.70;1702454;84;20985;-39
2022/02/04 09:23:27;;;;;;;6.40;3.85;;;;;;;-0.63;51.45;99443.45;1713733;83;21513;-39
2022/02/04 09:25:54;;;;;;;7.92;5.37;;;;;;;-0.59;51.41;99437.27;1719656;83;21026;-39
2022/02/04 09:28:21;;;;;;;8.93;6.08;;;;;;;-0.54;51.43;99439.08;1716749;82;21951;-39
2022/02/04 09:30:48;;;;;;;8.30;5.78;;;;;;;-0.43;51.59;99441.86;1674179;85;21482;-39
2022/02/04 09:33:15;;;;;;;9.65;6.28;;;;;;;-0.33;51.19;99440.94;1682309;84;21036;-39
2022/02/04 09:35:42;;;;;;;8.95;6.12;;;;;;;-0.23;51.00;99436.28;1702458;84;20969;-40
2022/02/04 09:38:09;;;;;;;8.45;6.33;;;;;;;-0.10;50.79;99441.45;1701498;84;21017;-40
2022/02/04 09:40:36;;;;;;;7.95;5.87;;;;;;;0.02;50.27;99444.47;1694059;84;21695;-40
2022/02/04 09:43:03;;;;;;;8.33;5.78;;;;;;;0.04;50.14;99440.20;1694031;84;21572;-40
2022/02/04 09:45:32;;;;;;;7.53;5.58;;;;;;;0.04;49.90;99434.33;1694098;84;21098;-39
2022/02/04 09:48:05;;;;;;;;;;;;;;;0.05;49.85;99435.13;1696722;84;21098;-40
2022/02/04 09:50:36;;;;;;;8.18;5.25;;;;;;;0.04;49.46;99434.33;1707260;84;20201;-39
2022/02/04 10:12:58;;;;;;;10.88;6.05;;;;;;;0.74;47.87;99420.95;1720818;83;21008;-40
2022/02/04 10:18:11;;;;;;;10.25;5.50;;;;;;;0.81;47.22;99426.18;1723908;82;21381;-40
2022/02/04 10:20:41;;;;;;;7.72;5.33;;;;;;;0.86;47.07;99419.95;1681739;83;21532;-39
2022/02/04 10:23:09;;;;;;;7.62;4.53;;;;;;;0.90;46.54;99426.29;1686748;84;21028;-40
2022/02/04 10:25:43;;;;;;;5.95;4.58;;;;;;;0.92;45.59;99421.43;1666008;86;21575;-40
2022/02/04 10:28:24;;;;;;;6.60;4.90;;;;;;;1.06;45.92;99420.94;1666091;86;21000;-40
2022/02/04 10:31:20;;;;;;;7.42;4.62;;;;;;;1.19;46.33;99425.48;1665972;86;21025;-40
2022/02/04 10:34:11;;;;;;;7.25;4.90;;;;;;;1.50;46.08;99428.91;1680267;84;21162;-40
2022/02/04 10:37:00;;;;;;;5.15;4.12;;;;;;;1.74;45.41;99424.14;1694196;84;20951;-40
2022/02/04 10:45:38;;;;;;;5.12;4.15;;;;;;;3.05;42.14;99415.64;1743307;82;21037;-40
2022/02/04 10:58:41;;;;;;;5.95;3.87;;;;;;;3.11;40.33;99402.91;1707691;83;21040;-41
2022/02/04 11:01:09;;;;;;;6.47;4.30;;;;;;;3.08;40.85;99398.73;1741676;81;21321;-41
2022/02/04 11:03:23;;;;;;;7.85;5.37;;;;;;;3.09;39.88;99406.47;1672631;84;21052;-40
2022/02/04 11:05:57;;;;;;;5.83;4.53;;;;;;;3.09;40.28;99398.97;1713692;83;21096;-40
2022/02/04 11:33:03;;;;;;;7.78;5.25;;;;;;;2.62;41.24;99374.47;1743512;81;21033;-40
2022/02/04 11:35:28;;;;;;;7.17;4.75;;;;;;;2.61;41.13;99374.25;1716040;82;21010;-41
2022/02/04 11:52:46;;;;;;;6.87;4.90;;;;;;;2.85;40.71;99366.66;1713731;82;21080;-40
2022/02/04 11:55:19;;;;;;;6.80;4.72;;;;;;;3.20;41.41;99361.41;1713660;82;21446;-40
2022/02/04 11:58:03;;;;;;;6.08;4.20;;;;;;;3.57;39.05;99370.28;1717035;82;21584;-41
2022/02/04 12:00:39;;;;;;;6.42;4.53;;;;;;;3.50;38.59;99361.35;1743124;81;20969;-40
2022/02/04 12:03:35;;;;;;;7.65;4.80;;;;;;;3.40;38.41;99362.98;1719929;82;21038;-41
2022/02/04 12:05:59;;;;;;;9.33;4.50;;;;;;;3.39;38.73;99368.64;1713446;82;21013;-40
2022/02/04 12:08:30;;;;;;;7.85;4.80;;;;;;;3.42;38.96;99361.34;1713509;82;21886;-40
2022/02/04 12:10:58;;;;;;;6.35;4.65;;;;;;;3.68;39.31;99360.82;1743215;81;21029;-41
2022/02/04 12:13:26;;;;;;;6.92;4.37;;;;;;;4.11;38.68;99358.73;1743816;82;20965;-41
2022/02/04 12:16:05;;;;;;;6.83;4.80;;;;;;;4.58;38.13;99355.03;1743239;81;21074;-40
2022/02/04 12:18:45;;;;;;;;;;;;;;;5.09;37.20;99362.67;1744846;82;21488;-40
2022/02/04 12:21:13;;;;;;;7.37;4.87;;;;;;;5.56;36.84;99356.67;1713811;83;21925;-41
2022/02/04 12:23:43;;;;;;;6.90;5.35;;;;;;;6.02;35.95;99353.04;1701475;83;21346;-41
2022/02/04 12:26:23;;;;;;;7.53;4.87;;;;;;;6.42;35.11;99350.63;1702438;84;21023;-41
2022/02/04 12:29:01;;;;;;;;;;;;;;;6.74;34.90;99353.06;1709924;84;21075;-41
2022/02/04 12:31:43;;;;;;;6.78;5.22;;;;;;;7.23;34.07;99356.61;1694366;84;20324;-41
2022/02/04 12:34:14;;;;;;;6.95;5.33;;;;;;;7.48;33.21;99356.83;1675650;84;21568;-41
2022/02/04 12:36:45;;;;;;;5.80;4.65;;;;;;;7.70;32.65;99350.16;1666021;86;21081;-41
2022/02/04 12:39:15;;;;;;;6.60;5.03;;;;;;;7.74;32.15;99351.86;1667113;85;21045;-41
2022/02/04 12:41:51;;;;;;;7.60;5.20;;;;;;;7.67;32.44;99347.59;1691551;84;21027;-41
2022/02/04 12:44:27;;;;;;;6.25;5.17;;;;;;;7.92;32.72;99355.63;1691823;84;21507;-41
2022/02/04 12:46:57;;;;;;;8.73;5.33;;;;;;;8.27;32.45;99353.39;1690177;84;21146;-41
2022/02/04 12:49:28;;;;;;;7.58;5.05;;;;;;;8.62;31.73;99353.56;1715520;83;21005;-41
2022/02/04 12:52:12;;;;;;;7.12;5.22;;;;;;;8.70;31.25;99347.23;1720597;83;21004;-41
2022/02/04 12:54:43;;;;;;;7.15;5.47;;;;;;;8.51;31.04;99349.03;1720043;83;21518;-42
2022/02/04 13:08:39;;;;;;;8.83;6.42;;;;;;;7.22;32.59;99350.98;1720487;82;20980;-41
2022/02/04 13:11:03;;;;;;;8.30;6.17;;;;;;;6.80;33.01;99352.53;1717897;83;21028;-41
2022/02/04 13:13:40;;;;;;;6.90;5.65;;;;;;;6.29;33.37;99343.64;1720646;83;21137;-42
2022/02/04 13:16:01;;;;;;;9.65;6.30;;;;;;;5.86;33.84;99352.02;1719571;83;21020;-41
2022/02/04 13:18:28;;;;;;;7.72;5.42;;;;;;;5.43;34.47;99351.75;1720508;83;21726;-41
2022/02/04 13:20:57;;;;;;;7.28;5.10;;;;;;;5.10;34.93;99350.81;1720577;83;21063;-41
2022/02/04 13:23:27;;;;;;;7.53;5.17;;;;;;;4.72;35.17;99343.54;1720602;83;21063;-41
2022/02/04 13:25:57;;;;;;;7.55;5.30;;;;;;;4.31;35.98;99346.78;1720559;83;21152;-41
2022/02/04 13:28:36;;;;;;;9.28;5.90;;;;;;;3.86;36.54;99349.03;1720360;83;21004;-41
2022/02/04 13:31:12;;;;;;;12.25;5.35;;;;;;;3.39;37.14;99355.24;1720540;83;21012;-41
2022/02/04 13:33:45;;;;;;;7.47;5.28;;;;;;;3.00;38.05;99358.20;1717940;83;20998;-41
2022/02/04 13:36:28;;;;;;;7.28;4.92;;;;;;;2.68;38.66;99357.19;1715219;83;21037;-41
2022/02/04 13:39:06;;;;;;;8.25;5.28;;;;;;;2.41;39.54;99355.48;1717838;82;21150;-41
2022/02/04 13:47:01;;;;;;;8.53;5.60;;;;;;;1.81;40.89;99357.69;1714961;83;21064;-41
2022/02/04 13:52:23;;;;;;;9.03;5.97;;;;;;;1.78;41.57;99355.63;1715002;83;21129;-41
2022/02/04 13:55:03;;;;;;;8.10;5.62;;;;;;;1.73;41.85;99347.72;1714266;83;21012;-40
2022/02/04 14:02:49;;;;;;;11.05;6.50;;;;;;;1.69;42.19;99351.52;1750566;81;21073;-40
2022/02/04 14:05:12;;;;;;;13.18;7.28;;;;;;;1.68;42.07;99349.96;1750533;81;21568;-40
2022/02/04 14:07:48;;;;;;;11.73;7.00;;;;;;;1.63;42.38;99350.61;1751061;82;20998;-40
2022/02/04 14:10:28;;;;;;;9.43;6.00;;;;;;;1.57;42.29;99347.80;1750997;81;21017;-40
2022/02/04 14:13:10;;;;;;;12.03;6.65;;;;;;;1.50;42.37;99348.77;1714574;82;21096;-40
2022/02/04 14:15:44;;;;;;;11.90;6.37;;;;;;;1.37;42.43;99358.91;1715168;83;20992;-41
2022/02/04 14:18:12;;;;;;;11.65;6.90;;;;;;;1.19;42.70;99360.07;1710296;83;21127;-40
2022/02/04 14:20:41;;;;;;;9.45;5.72;;;;;;;1.11;43.21;99366.11;1714942;83;21459;-40
2022/02/04 14:23:10;;;;;;;10.32;6.28;;;;;;;1.10;42.92;99364.52;1715000;83;21480;-40
2022/02/04 14:26:01;;;;;;;8.85;6.25;;;;;;;1.06;43.30;99371.55;1714950;83;20983;-40
2022/02/04 14:28:33;;;;;;;9.93;6.58;;;;;;;1.06;43.55;99374.22;1714329;83;21028;-40
2022/02/04 14:31:01;;;;;;;11.25;6.58;;;;;;;1.08;43.63;99372.56;1713587;83;21131;-40
2022/02/04 14:34:34;;;;;;;11.80;7.37;;;;;;;1.09;43.47;99368.81;1714035;83;20933;-40
2022/02/04 14:36:24;;;;;;;10.98;7.22;;;;;;;1.08;43.67;99368.56;1710818;83;21037;-40
2022/02/04 15:00:53;;;;;;;9.63;6.15;;;;;;;-0.14;45.67;99367.15;1673933;85;21053;-39
2022/02/04 15:03:21;;;;;;;9.05;6.00;;;;;;;-0.20;45.55;99374.98;1697562;84;21095;-40
2022/02/04 15:05:59;;;;;;;9.13;5.53;;;;;;;-0.40;45.88;99374.72;1694807;83;21331;-40
2022/02/04 15:08:18;;;;;;;8.85;5.83;;;;;;;-0.55;46.17;99372.25;1692503;84;21018;-39
2022/02/04 15:10:47;;;;;;;8.08;5.25;;;;;;;-0.74;46.51;99380.20;1694962;84;21959;-39
2022/02/04 15:13:16;;;;;;;;;;;;;;;-0.87;46.81;99377.45;1697617;84;21653;-40
2022/02/04 15:15:43;;;;;;;9.83;5.80;;;;;;;-1.03;47.12;99383.47;1695074;84;20198;-40
2022/02/04 15:18:11;;;;;;;9.40;6.28;;;;;;;-1.22;47.52;99387.92;1679654;84;21612;-40
2022/02/04 15:20:39;;;;;;;9.90;6.03;;;;;;;-1.24;47.79;99389.52;1666973;86;21108;-39
2022/02/04 15:23:06;;;;;;;11.63;6.60;;;;;;;-1.19;48.10;99397.98;1666864;84;21791;-39
2022/02/04 15:25:33;;;;;;;10.28;6.40;;;;;;;-1.14;47.96;99395.28;1666780;86;21018;-40
2022/02/04 15:29:04;;;;;;;9.58;6.58;;;;;;;-1.09;47.96;99400.02;1666924;85;20993;-40
2022/02/04 15:30:42;;;;;;;12.10;7.72;;;;;;;-1.06;47.94;99404.76;1641634;86;21005;-39
2022/02/04 15:33:07;;;;;;;16.25;8.88;;;;;;;-1.04;48.01;99401.83;1666700;84;21646;-39
2022/02/04 15:35:33;;;;;;;15.28;9.23;;;;;;;-1.06;47.99;99397.31;1666885;86;21124;-39
2022/02/04 15:38:00;;;;;;;13.20;8.35;;;;;;;-1.06;48.14;99401.30;1667110;84;21035;-39
2022/02/04 15:40:28;;;;;;;14.85;8.78;;;;;;;-1.08;48.46;99399.48;1666272;86;21064;-40
2022/02/04 15:43:01;;;;;;;15.95;7.62;;;;;;;-1.10;48.78;99402.95;1646772;86;21516;-39
2022/02/04 15:56:12;;;;;;;10.18;6.67;;;;;;;-1.27;49.34;99399.94;1710373;83;21077;-40
2022/02/04 15:58:56;;;;;;;12.68;7.90;;;;;;;-1.29;49.37;99402.06;1697195;83;21096;-39
2022/02/04 16:00:53;;;;;;;14.90;8.30;;;;;;;-1.35;49.30;99398.13;1687457;83;21152;-39
2022/02/04 16:05:49;;;;;;;12.73;8.43;;;;;;;-1.45;49.26;99399.55;1710157;83;21014;-39
2022/02/04 16:08:18;;;;;;;12.98;8.03;;;;;;;-1.50;49.28;99402.24;1723455;81;21061;-39
2022/02/04 16:10:55;;;;;;;12.57;7.67;;;;;;;-1.57;49.27;99399.13;1740073;82;21018;-39
2022/02/04 16:13:33;;;;;;;13.30;7.80;;;;;;;-1.62;49.40;99401.83;1712275;82;21141;-39
2022/02/04 16:15:56;;;;;;;13.58;8.85;;;;;;;-1.68;49.62;99407.45;1708470;83;21027;-40
2022/02/04 16:18:24;;;;;;;17.02;8.33;;;;;;;-1.74;49.67;99411.24;1709804;83;21053;-39
2022/02/04 16:23:34;;;;;;;14.58;8.53;;;;;;;-1.88;49.69;99406.53;1710457;82;21089;-39
2022/02/04 16:28:41;;;;;;;15.55;8.28;;;;;;;-2.00;50.01;99407.95;1710373;83;20998;-40
2022/02/04 16:31:15;;;;;;;14.65;8.78;;;;;;;-2.09;50.11;99408.28;1711276;82;20942;-39
2022/02/04 16:33:42;;;;;;;14.65;8.58;;;;;;;-2.14;50.20;99413.63;1723858;82;21500;-40
2022/02/04 16:36:14;;;;;;;15.43;9.43;;;;;;;-2.24;50.42;99415.80;1739839;82;21021;-39
2022/02/04 16:38:39;;;;;;;15.70;9.73;;;;;;;-2.32;50.62;99416.36;1739561;82;21800;-39
2022/02/04 16:41:08;;;;;;;16.37;9.78;;;;;;;-2.39;50.68;99416.67;1742653;81;21499;-40
2022/02/04 16:43:35;;;;;;;16.82;9.88;;;;;;;-2.45;50.57;99418.28;1746049;81;21024;-39
2022/02/04 16:46:03;;;;;;;14.83;8.95;;;;;;;-2.55;50.55;99416.47;1748760;82;20976;-39
2022/02/04 16:48:30;;;;;;;14.00;8.70;;;;;;;-2.63;50.58;99414.39;1749129;82;21033;-39
2022/02/04 16:50:56;;;;;;;14.35;8.35;;;;;;;-2.71;50.55;99417.61;1748812;82;21138;-39
2022/02/04 16:53:24;;;;;;;15.90;8.70;;;;;;;-2.79;50.50;99420.80;1746336;81;21033;-39
2022/02/04 16:55:51;;;;;;;11.12;7.00;;;;;;;-2.85;50.51;99424.53;1748685;82;21005;-39
2022/02/04 16:58:17;;;;;;;12.10;7.87;;;;;;;-2.94;50.57;99419.52;1731241;82;21463;-39
2022/02/04 17:00:43;;;;;;;13.15;7.87;;;;;;;-3.00;50.46;99412.10;1681987;83;20949;-39
2022/02/04 17:03:11;;;;;;;12.03;8.15;;;;;;;-3.05;50.53;99412.67;1719039;83;21136;-39
2022/02/04 17:05:50;;;;;;;14.03;8.15;;;;;;;-3.11;50.77;99415.33;1718904;83;21538;-39
2022/02/04 17:08:09;;;;;;;16.37;9.35;;;;;;;-3.15;50.81;99417.46;1716953;82;20992;-39
2022/02/04 17:10:40;;;;;;;14.95;9.63;;;;;;;-3.20;50.84;99419.59;1719090;83;21538;-39
2022/02/04 17:13:05;;;;;;;14.95;9.05;;;;;;;-3.25;51.12;99427.55;1718903;82;21539;-39
2022/02/04 17:15:34;;;;;;;13.55;8.48;;;;;;;-3.28;51.37;99424.62;1719006;82;21958;-39
2022/02/04 17:18:02;;;;;;;16.67;8.68;;;;;;;-3.32;51.45;99424.36;1719509;83;21076;-39
2022/02/04 17:20:30;;;;;;;13.75;8.58;;;;;;;-3.36;51.45;99419.34;1719016;83;21602;-39
2022/02/04 17:22:57;;;;;;;16.50;8.65;;;;;;;-3.40;51.50;99418.28;1719105;83;21016;-39
2022/02/04 17:25:28;;;;;;;14.68;8.73;;;;;;;-3.46;51.55;99418.55;1718973;83;21558;-39
2022/02/04 17:27:57;;;;;;;15.25;9.35;;;;;;;-3.51;51.54;99420.14;1719134;83;21115;-39
2022/02/04 17:30:24;;;;;;;20.00;9.85;;;;;;;-3.55;51.65;99418.29;1718874;83;20942;-39
2022/02/04 17:32:51;;;;;;;14.68;8.63;;;;;;;-3.59;51.76;99420.69;1722869;82;21500;-39
2022/02/04 17:35:20;;;;;;;16.87;9.70;;;;;;;-3.65;51.72;99414.31;1748829;82;21024;-39
2022/02/04 17:37:47;;;;;;;16.48;9.55;;;;;;;-3.70;51.82;99410.34;1749270;82;21056;-39
2022/02/04 17:40:15;;;;;;;17.45;10.20;;;;;;;-3.74;51.85;99415.38;1748669;82;21982;-39